createdAt,value
2023-02-06T00:01:57.556Z,99.90
2023-02-06T00:04:25.714Z,99.90
2023-02-06T00:06:53.848Z,99.90
2023-02-06T00:09:21.306Z,99.90
2023-02-06T00:11:49.125Z,99.90
2023-02-06T00:14:16.940Z,99.90
2023-02-06T00:16:44.633Z,99.90
2023-02-06T00:19:12.759Z,99.90
2023-02-06T00:21:41.002Z,99.90
2023-02-06T00:24:09.189Z,99.90
2023-02-06T00:26:36.632Z,99.90
2023-02-06T00:29:04.344Z,99.90
2023-02-06T00:31:32.300Z,99.90
2023-02-06T00:34:01.283Z,99.90
2023-02-06T00:36:29.428Z,99.90
2023-02-06T00:38:56.944Z,99.90
2023-02-06T00:41:24.857Z,99.90
2023-02-06T00:43:52.454Z,99.90
2023-02-06T00:46:25.169Z,99.90
2023-02-06T00:48:52.400Z,99.90
2023-02-06T00:51:20.166Z,99.90
2023-02-06T00:53:50.175Z,99.90
2023-02-06T00:56:17.564Z,99.90
2023-02-06T00:58:46.754Z,99.90
2023-02-06T01:01:14.449Z,99.90
2023-02-06T01:03:44.919Z,99.90
2023-02-06T01:06:12.674Z,99.90
2023-02-06T01:08:40.544Z,99.90
2023-02-06T01:11:13.891Z,99.90
2023-02-06T01:13:43.799Z,99.90
2023-02-06T01:16:14.669Z,99.90
2023-02-06T01:18:42.750Z,99.90
2023-02-06T01:21:16.372Z,99.90
2023-02-06T01:23:57.796Z,99.90
2023-02-06T01:26:27.254Z,99.90
2023-02-06T01:28:55.646Z,99.90
2023-02-06T01:31:29.056Z,99.90
2023-02-06T01:34:10.393Z,99.90
2023-02-06T01:36:37.988Z,99.90
2023-02-06T01:39:08.930Z,99.90
2023-02-06T01:41:36.309Z,99.90
2023-02-06T01:44:19.444Z,99.90
2023-02-06T01:46:52.477Z,99.90
2023-02-06T01:49:30.344Z,99.90
2023-02-06T01:52:18.680Z,99.90
2023-02-06T01:54:50.179Z,99.90
2023-02-06T01:57:19.078Z,99.90
2023-02-06T01:59:50.725Z,99.90
2023-02-06T02:02:19.097Z,99.90
2023-02-06T02:04:47.864Z,99.90
2023-02-06T02:07:31.307Z,99.90
2023-02-06T02:09:59.001Z,99.90
2023-02-06T02:12:30.546Z,99.90
2023-02-06T02:14:59.552Z,99.90
2023-02-06T02:18:00.193Z,99.90
2023-02-06T02:20:47.110Z,99.90
2023-02-06T02:23:21.259Z,99.90
2023-02-06T02:25:53.012Z,99.90
2023-02-06T02:28:24.333Z,99.90
2023-02-06T02:31:30.921Z,99.90
2023-02-06T02:34:08.018Z,99.90
2023-02-06T02:36:54.766Z,99.90
2023-02-06T02:39:37.899Z,99.90
2023-02-06T02:42:18.150Z,99.90
2023-02-06T02:44:52.209Z,99.90
2023-02-06T02:47:23.507Z,99.90
2023-02-06T02:49:53.628Z,99.90
2023-02-06T02:52:21.568Z,99.90
2023-02-06T02:54:49.414Z,99.90
2023-02-06T02:57:20.652Z,99.90
2023-02-06T02:59:54.544Z,99.90
2023-02-06T03:02:25.345Z,99.90
2023-02-06T03:05:00.085Z,99.90
2023-02-06T03:07:41.940Z,99.90
2023-02-06T03:10:22.956Z,99.90
2023-02-06T03:12:56.794Z,99.90
2023-02-06T03:15:32.608Z,99.90
2023-02-06T03:18:04.164Z,99.90
2023-02-06T03:20:33.698Z,99.90
2023-02-06T03:23:03.958Z,99.90
2023-02-06T03:25:36.073Z,99.90
2023-02-06T03:28:09.813Z,99.90
2023-02-06T03:30:40.122Z,99.90
2023-02-06T03:33:10.681Z,99.90
2023-02-06T03:35:39.331Z,99.90
2023-02-06T03:38:09.059Z,99.90
2023-02-06T03:40:39.867Z,99.90
2023-02-06T03:43:09.999Z,99.90
2023-02-06T03:45:43.123Z,99.90
2023-02-06T03:48:17.607Z,99.90
2023-02-06T03:50:46.968Z,99.90
2023-02-06T03:53:16.995Z,99.90
2023-02-06T03:55:47.167Z,99.90
2023-02-06T03:58:15.423Z,99.90
2023-02-06T04:00:45.631Z,99.90
2023-02-06T04:03:15.009Z,99.90
2023-02-06T04:05:42.577Z,99.90
2023-02-06T04:08:10.480Z,99.90
2023-02-06T04:10:38.622Z,99.90
2023-02-06T04:13:06.067Z,99.90
2023-02-06T04:15:34.200Z,99.90
2023-02-06T04:18:03.428Z,99.90
2023-02-06T04:20:31.570Z,99.90
2023-02-06T04:22:59.487Z,99.90
2023-02-06T04:25:27.216Z,99.90
2023-02-06T04:27:56.459Z,99.90
2023-02-06T04:30:24.006Z,99.90
2023-02-06T04:32:52.436Z,99.90
2023-02-06T04:35:20.103Z,99.90
2023-02-06T04:37:47.903Z,99.90
2023-02-06T04:40:16.088Z,99.90
2023-02-06T04:42:44.512Z,99.90
2023-02-06T04:45:13.304Z,99.90
2023-02-06T04:47:41.063Z,99.90
2023-02-06T04:50:10.737Z,99.90
2023-02-06T04:52:38.617Z,99.90
2023-02-06T04:55:08.018Z,99.90
2023-02-06T04:57:35.672Z,99.90
2023-02-06T05:00:04.982Z,99.90
2023-02-06T05:02:34.480Z,99.90
2023-02-06T05:05:02.290Z,99.90
2023-02-06T05:07:29.898Z,99.90
2023-02-06T05:09:57.854Z,99.90
2023-02-06T05:12:28.523Z,99.90
2023-02-06T05:14:56.783Z,99.90
2023-02-06T05:17:24.703Z,99.90
2023-02-06T05:19:52.281Z,99.90
2023-02-06T05:22:20.230Z,99.90
2023-02-06T05:24:47.927Z,99.90
2023-02-06T05:27:15.793Z,99.90
2023-02-06T05:29:44.074Z,99.90
2023-02-06T05:32:11.579Z,99.90
2023-02-06T05:34:39.665Z,99.90
2023-02-06T05:37:07.416Z,99.90
2023-02-06T05:39:55.461Z,99.90
2023-02-06T05:42:23.530Z,99.90
2023-02-06T05:44:51.531Z,99.90
2023-02-06T05:47:19.532Z,99.90
2023-02-06T05:49:48.710Z,99.90
2023-02-06T05:52:16.998Z,99.90
2023-02-06T05:54:45.889Z,99.90
2023-02-06T05:57:13.235Z,99.90
2023-02-06T05:59:40.904Z,99.90
2023-02-06T06:02:08.474Z,99.90
2023-02-06T06:04:36.421Z,99.90
2023-02-06T06:07:05.034Z,99.90
2023-02-06T06:09:32.864Z,99.90
2023-02-06T06:12:00.667Z,99.90
2023-02-06T06:14:31.463Z,99.90
2023-02-06T06:16:59.512Z,99.90
2023-02-06T06:19:27.370Z,99.90
2023-02-06T06:21:56.613Z,99.90
2023-02-06T06:24:26.386Z,99.90
2023-02-06T06:26:54.846Z,99.90
2023-02-06T06:29:22.731Z,99.90
2023-02-06T06:31:53.788Z,99.90
2023-02-06T06:34:22.277Z,99.90
2023-02-06T06:36:49.834Z,99.90
2023-02-06T06:39:17.835Z,99.90
2023-02-06T06:41:46.013Z,99.90
2023-02-06T06:44:13.715Z,99.90
2023-02-06T06:46:41.322Z,99.90
2023-02-06T06:49:11.670Z,99.90
2023-02-06T06:51:40.289Z,99.90
2023-02-06T06:54:08.198Z,99.90
2023-02-06T06:56:36.133Z,99.90
2023-02-06T06:59:04.222Z,99.90
2023-02-06T07:01:31.656Z,99.90
2023-02-06T07:04:00.699Z,99.90
2023-02-06T07:06:28.517Z,99.90
2023-02-06T07:08:56.535Z,99.90
2023-02-06T07:11:26.107Z,99.90
2023-02-06T07:13:54.160Z,99.90
2023-02-06T07:16:31.673Z,99.90
2023-02-06T07:19:03.042Z,99.90
2023-02-06T07:21:31.237Z,99.90
2023-02-06T07:24:03.095Z,99.90
2023-02-06T07:26:30.930Z,99.90
2023-02-06T07:28:58.928Z,99.90
2023-02-06T07:31:26.889Z,99.90
2023-02-06T07:33:55.310Z,99.90
2023-02-06T07:36:23.582Z,99.90
2023-02-06T07:38:51.267Z,99.90
2023-02-06T07:41:19.161Z,99.90
2023-02-06T07:43:46.795Z,99.90
2023-02-06T07:46:14.993Z,99.90
2023-02-06T07:48:44.089Z,99.90
2023-02-06T07:51:11.784Z,99.90
2023-02-06T07:53:39.708Z,99.90
2023-02-06T07:56:12.957Z,99.90
2023-02-06T07:58:41.080Z,99.90
2023-02-06T08:01:09.267Z,99.90
2023-02-06T08:03:37.663Z,99.90
2023-02-06T08:06:15.269Z,99.90
2023-02-06T08:08:43.406Z,99.90
2023-02-06T08:11:14.975Z,99.90
2023-02-06T08:13:44.195Z,99.90
2023-02-06T08:16:15.288Z,99.90
2023-02-06T08:18:43.531Z,99.90
2023-02-06T08:21:17.450Z,99.90
2023-02-06T08:23:46.904Z,99.90
2023-02-06T08:26:19.419Z,99.90
2023-02-06T08:28:51.840Z,99.90
2023-02-06T08:31:25.203Z,99.90
2023-02-06T08:33:53.485Z,99.90
2023-02-06T08:36:23.029Z,99.90
2023-02-06T08:38:53.432Z,99.90
2023-02-06T08:41:26.137Z,99.90
2023-02-06T08:43:59.604Z,99.90
2023-02-06T08:46:30.892Z,99.90
2023-02-06T08:49:05.212Z,99.90
2023-02-06T08:51:34.790Z,99.90
2023-02-06T08:54:11.075Z,99.90
2023-02-06T08:56:39.139Z,99.90
2023-02-06T08:59:07.704Z,99.90
2023-02-06T09:01:39.329Z,99.90
2023-02-06T09:04:09.775Z,99.90
2023-02-06T09:06:40.308Z,99.90
2023-02-06T09:09:10.539Z,99.90
2023-02-06T09:11:39.044Z,99.90
2023-02-06T09:14:08.408Z,99.90
2023-02-06T09:16:38.084Z,99.90
2023-02-06T09:19:06.716Z,99.90
2023-02-06T09:21:48.467Z,99.90
2023-02-06T09:24:16.302Z,99.90
2023-02-06T09:26:58.562Z,99.90
2023-02-06T09:29:15.248Z,99.90
2023-02-06T09:31:43.801Z,99.90
2023-02-06T09:34:13.054Z,99.90
2023-02-06T09:36:41.724Z,99.90
2023-02-06T09:39:10.193Z,99.90
2023-02-06T09:41:44.103Z,99.90
2023-02-06T09:44:16.009Z,99.90
2023-02-06T09:47:05.322Z,99.90
2023-02-06T09:49:46.154Z,99.90
2023-02-06T09:52:36.206Z,99.90
2023-02-06T09:55:43.588Z,99.60
2023-02-06T09:58:16.465Z,99.50
2023-02-06T10:00:50.904Z,98.60
2023-02-06T10:03:26.804Z,98.70
2023-02-06T10:06:04.537Z,99.30
2023-02-06T10:08:41.581Z,99.20
2023-02-06T10:11:26.743Z,99.10
2023-02-06T10:14:01.044Z,98.10
2023-02-06T10:16:44.276Z,98.20
2023-02-06T10:19:25.884Z,96.70
2023-02-06T10:22:03.296Z,97.40
2023-02-06T10:24:51.732Z,97.00
2023-02-06T10:27:20.887Z,97.30
2023-02-06T10:29:51.094Z,96.50
2023-02-06T10:32:35.309Z,97.00
2023-02-06T10:35:17.246Z,97.40
2023-02-06T10:38:05.346Z,97.50
2023-02-06T10:40:52.567Z,97.70
2023-02-06T10:43:41.152Z,96.80
2023-02-06T10:46:30.644Z,96.80
2023-02-06T10:49:05.439Z,96.50
2023-02-06T10:51:37.818Z,96.20
2023-02-06T10:54:09.196Z,95.70
2023-02-06T10:56:44.070Z,95.60
2023-02-06T10:59:30.864Z,96.00
2023-02-06T11:02:14.068Z,95.90
2023-02-06T11:05:16.683Z,96.30
2023-02-06T11:07:47.740Z,96.40
2023-02-06T11:10:17.835Z,96.80
2023-02-06T11:12:51.949Z,96.50
2023-02-06T11:15:35.680Z,96.40
2023-02-06T11:18:06.694Z,96.20
2023-02-06T11:20:37.554Z,96.20
2023-02-06T11:23:21.490Z,96.50
2023-02-06T11:25:59.170Z,95.90
2023-02-06T11:28:27.659Z,95.90
2023-02-06T11:31:05.040Z,95.60
2023-02-06T11:33:51.580Z,95.20
2023-02-06T11:36:28.937Z,94.60
2023-02-06T11:39:08.613Z,94.60
2023-02-06T11:41:38.008Z,94.70
2023-02-06T11:44:26.188Z,95.20
2023-02-06T11:46:54.005Z,95.10
2023-02-06T11:49:29.429Z,95.30
2023-02-06T11:52:04.919Z,95.40
2023-02-06T11:54:35.698Z,95.10
2023-02-06T11:57:08.567Z,95.40
2023-02-06T11:59:39.878Z,95.70
2023-02-06T12:02:14.120Z,95.70
2023-02-06T12:04:43.182Z,95.50
2023-02-06T12:07:21.042Z,96.00
2023-02-06T12:09:50.114Z,96.00
2023-02-06T12:12:24.936Z,95.90
2023-02-06T12:15:00.133Z,95.90
2023-02-06T12:17:42.354Z,95.70
2023-02-06T12:20:26.873Z,95.90
2023-02-06T12:23:01.669Z,96.30
2023-02-06T12:25:39.578Z,96.10
2023-02-06T12:28:23.387Z,96.00
2023-02-06T12:31:01.103Z,95.90
2023-02-06T12:33:37.408Z,96.50
2023-02-06T12:36:16.136Z,96.80
2023-02-06T12:38:59.944Z,96.10
2023-02-06T12:41:40.861Z,96.00
2023-02-06T12:44:37.681Z,95.80
2023-02-06T12:47:27.632Z,95.80
2023-02-06T12:53:01.421Z,96.20
2023-02-06T12:55:31.678Z,95.80
2023-02-06T12:57:59.837Z,95.70
2023-02-06T13:01:00.408Z,95.50
2023-02-06T13:03:37.054Z,95.70
2023-02-06T13:06:14.331Z,95.70
2023-02-06T13:08:45.916Z,95.60
2023-02-06T13:11:26.949Z,95.40
2023-02-06T13:14:04.682Z,95.10
2023-02-06T13:16:51.078Z,94.50
2023-02-06T13:19:25.536Z,94.50
2023-02-06T13:22:13.272Z,95.30
2023-02-06T13:24:46.630Z,95.10
2023-02-06T13:27:26.839Z,95.00
2023-02-06T13:29:54.800Z,95.00
2023-02-06T13:32:36.509Z,94.80
2023-02-06T13:35:14.265Z,94.40
2023-02-06T13:37:46.774Z,94.30
2023-02-06T13:40:28.004Z,94.20
2023-02-06T13:43:14.977Z,93.90
2023-02-06T13:45:58.137Z,94.30
2023-02-06T13:49:03.778Z,93.20
2023-02-06T13:51:47.121Z,93.50
2023-02-06T13:54:34.193Z,93.30
2023-02-06T13:57:26.720Z,93.00
2023-02-06T14:00:06.849Z,94.00
2023-02-06T14:02:39.515Z,93.80
2023-02-06T14:05:15.416Z,93.70
2023-02-06T14:08:11.197Z,93.10
2023-02-06T14:11:10.804Z,92.60
2023-02-06T14:13:42.082Z,92.40
2023-02-06T14:16:21.005Z,92.40
2023-02-06T14:18:56.145Z,92.90
2023-02-06T14:21:57.388Z,92.60
2023-02-06T14:24:45.633Z,92.50
2023-02-06T14:27:26.078Z,92.00
2023-02-06T14:30:15.383Z,91.50
2023-02-06T14:32:54.351Z,91.10
2023-02-06T14:35:38.240Z,91.60
2023-02-06T14:38:19.977Z,91.20
2023-02-06T14:40:51.087Z,90.70
2023-02-06T14:43:22.725Z,90.80
2023-02-06T14:46:07.049Z,91.20
2023-02-06T14:48:48.742Z,91.30
2023-02-06T14:51:22.794Z,91.60
2023-02-06T14:53:57.425Z,91.70
2023-02-06T14:56:26.907Z,92.00
2023-02-06T14:58:55.111Z,92.30
2023-02-06T15:01:26.915Z,92.20
2023-02-06T15:03:58.360Z,92.40
2023-02-06T15:06:35.440Z,92.30
2023-02-06T15:09:04.431Z,92.70
2023-02-06T15:11:33.386Z,92.80
2023-02-06T15:14:07.470Z,93.10
2023-02-06T15:16:52.766Z,93.30
2023-02-06T15:19:24.067Z,93.30
2023-02-06T15:21:55.729Z,93.50
2023-02-06T15:24:44.234Z,93.90
2023-02-06T15:27:33.607Z,93.80
2023-02-06T15:30:03.052Z,94.00
2023-02-06T15:32:39.946Z,94.20
2023-02-06T15:35:26.509Z,94.30
2023-02-06T15:37:55.091Z,94.40
2023-02-06T15:40:35.729Z,94.40
2023-02-06T15:43:16.731Z,94.40
2023-02-06T15:45:45.261Z,94.50
2023-02-06T15:48:26.120Z,94.60
2023-02-06T15:51:10.236Z,94.70
2023-02-06T15:53:40.771Z,94.70
2023-02-06T15:56:22.289Z,94.80
2023-02-06T15:59:04.221Z,94.90
2023-02-06T16:01:37.284Z,94.90
2023-02-06T16:04:27.244Z,95.10
2023-02-06T16:07:05.309Z,95.20
2023-02-06T16:09:40.488Z,95.30
2023-02-06T16:12:09.133Z,95.30
2023-02-06T16:14:39.601Z,95.50
2023-02-06T16:17:29.805Z,95.70
2023-02-06T16:20:02.300Z,95.80
2023-02-06T16:22:38.071Z,96.40
2023-02-06T16:25:33.093Z,96.10
2023-02-06T16:28:00.975Z,97.00
2023-02-06T16:30:35.024Z,96.70
2023-02-06T16:33:19.516Z,96.50
2023-02-06T16:35:49.375Z,96.50
2023-02-06T16:38:17.173Z,96.70
2023-02-06T16:40:57.869Z,96.70
2023-02-06T16:43:28.644Z,96.80
2023-02-06T16:46:06.574Z,96.70
2023-02-06T16:48:34.353Z,96.50
2023-02-06T16:51:02.302Z,96.60
2023-02-06T16:53:30.687Z,96.70
2023-02-06T16:55:59.135Z,96.70
2023-02-06T16:58:29.603Z,96.80
2023-02-06T17:00:57.833Z,96.90
2023-02-06T17:03:25.810Z,97.10
2023-02-06T17:05:56.398Z,97.30
2023-02-06T17:08:25.282Z,97.40
2023-02-06T17:10:54.477Z,97.30
2023-02-06T17:13:24.759Z,97.60
2023-02-06T17:15:53.644Z,97.40
2023-02-06T17:18:23.508Z,97.40
2023-02-06T17:20:53.108Z,97.30
2023-02-06T17:23:21.369Z,97.40
2023-02-06T17:25:49.784Z,97.30
2023-02-06T17:28:24.445Z,97.70
2023-02-06T17:30:52.364Z,97.20
2023-02-06T17:33:21.153Z,97.10
2023-02-06T17:35:50.131Z,97.00
2023-02-06T17:38:18.044Z,97.30
2023-02-06T17:40:46.251Z,97.40
2023-02-06T17:43:27.623Z,97.10
2023-02-06T17:45:55.888Z,97.20
2023-02-06T17:48:23.882Z,97.40
2023-02-06T17:50:52.167Z,97.50
2023-02-06T17:53:22.207Z,97.60
2023-02-06T17:55:50.251Z,97.60
2023-02-06T17:58:18.968Z,97.60
2023-02-06T18:00:50.328Z,97.80
2023-02-06T18:03:19.805Z,97.90
2023-02-06T18:05:51.590Z,98.60
2023-02-06T18:08:19.604Z,99.60
2023-02-06T18:10:47.848Z,99.50
2023-02-06T18:13:15.847Z,98.70
2023-02-06T18:15:56.667Z,98.50
2023-02-06T18:18:26.586Z,98.60
2023-02-06T18:20:54.493Z,98.50
2023-02-06T18:23:22.710Z,98.60
2023-02-06T18:25:50.735Z,98.60
2023-02-06T18:28:19.036Z,98.60
2023-02-06T18:30:46.974Z,98.70
2023-02-06T18:33:14.902Z,98.80
2023-02-06T18:35:49.344Z,98.60
2023-02-06T18:38:17.625Z,98.70
2023-02-06T18:40:47.115Z,98.80
2023-02-06T18:43:28.808Z,98.90
2023-02-06T18:45:56.904Z,98.90
2023-02-06T18:48:25.496Z,99.00
2023-02-06T18:50:54.903Z,99.00
2023-02-06T18:53:26.459Z,99.00
2023-02-06T18:55:59.244Z,98.90
2023-02-06T18:58:27.674Z,99.10
2023-02-06T19:00:56.466Z,99.30
2023-02-06T19:03:24.706Z,99.40
2023-02-06T19:05:52.446Z,99.40
2023-02-06T19:08:23.764Z,99.60
2023-02-06T19:10:52.018Z,99.80
2023-02-06T19:13:20.691Z,99.80
2023-02-06T19:15:49.841Z,99.90
2023-02-06T19:18:21.538Z,99.90
2023-02-06T19:20:48.921Z,99.90
2023-02-06T19:23:17.150Z,99.90
2023-02-06T19:25:47.214Z,99.90
2023-02-06T19:28:16.486Z,99.90
2023-02-06T19:30:44.775Z,99.90
2023-02-06T19:33:16.613Z,99.90
2023-02-06T19:35:48.207Z,99.90
2023-02-06T19:38:16.084Z,99.90
2023-02-06T19:40:46.401Z,99.90
2023-02-06T19:43:17.959Z,99.90
2023-02-06T19:45:47.069Z,99.90
2023-02-06T19:48:17.667Z,99.90
2023-02-06T19:50:49.813Z,99.90
2023-02-06T19:53:21.103Z,99.90
2023-02-06T19:55:49.086Z,99.90
2023-02-06T19:58:17.440Z,99.90
2023-02-06T20:01:10.381Z,99.90
2023-02-06T20:03:38.866Z,99.90
2023-02-06T20:06:11.235Z,99.90
2023-02-06T20:08:41.226Z,99.90
2023-02-06T20:11:12.551Z,99.90
2023-02-06T20:13:41.526Z,99.90
2023-02-06T20:16:19.008Z,99.90
2023-02-06T20:19:08.091Z,99.90
2023-02-06T20:21:40.842Z,99.90
2023-02-06T20:24:11.683Z,99.90
2023-02-06T20:26:41.996Z,99.90
2023-02-06T20:29:31.420Z,99.90
2023-02-06T20:32:00.150Z,99.90
2023-02-06T20:34:28.734Z,99.90
2023-02-06T20:36:57.564Z,99.90
2023-02-06T20:39:27.570Z,99.90
2023-02-06T20:41:55.688Z,99.90
2023-02-06T20:44:23.283Z,99.90
2023-02-06T20:46:51.660Z,99.90
2023-02-06T20:49:23.157Z,99.90
2023-02-06T20:51:52.562Z,99.90
2023-02-06T20:54:21.762Z,99.90
2023-02-06T20:56:53.357Z,99.90
2023-02-06T20:59:22.258Z,99.90
2023-02-06T21:01:50.209Z,99.90
2023-02-06T21:04:19.890Z,99.90
2023-02-06T21:06:58.763Z,99.90
2023-02-06T21:09:26.804Z,99.90
2023-02-06T21:11:54.854Z,99.90
2023-02-06T21:14:22.620Z,99.90
2023-02-06T21:16:50.861Z,99.90
2023-02-06T21:19:20.764Z,99.90
2023-02-06T21:21:49.402Z,99.90
2023-02-06T21:24:20.476Z,99.90
2023-02-06T21:26:50.799Z,99.90
2023-02-06T21:29:19.214Z,99.90
2023-02-06T21:31:47.430Z,99.90
2023-02-06T21:34:18.786Z,99.90
2023-02-06T21:36:48.045Z,99.90
2023-02-06T21:39:18.580Z,99.90
2023-02-06T21:41:47.941Z,99.90
2023-02-06T21:44:18.548Z,99.90
2023-02-06T21:46:46.649Z,99.90
2023-02-06T21:49:18.117Z,99.90
2023-02-06T21:51:49.100Z,99.90
2023-02-06T21:54:18.367Z,99.90
2023-02-06T21:56:46.399Z,99.90
2023-02-06T21:59:14.474Z,99.90
2023-02-06T22:01:43.860Z,99.90
2023-02-06T22:04:12.764Z,99.90
2023-02-06T22:06:44.933Z,99.90
2023-02-06T22:09:22.378Z,99.90
2023-02-06T22:11:50.300Z,99.90
2023-02-06T22:14:22.398Z,99.90
2023-02-06T22:16:50.215Z,99.90
2023-02-06T22:19:21.567Z,99.90
2023-02-06T22:24:37.361Z,99.90
2023-02-06T22:27:06.478Z,99.90
2023-02-06T22:29:34.801Z,99.90
2023-02-06T22:32:04.400Z,99.90
2023-02-06T22:34:34.003Z,99.90
2023-02-06T22:37:05.926Z,99.90
2023-02-06T22:39:33.478Z,99.90
2023-02-06T22:42:01.573Z,99.90
2023-02-06T22:44:29.675Z,99.90
2023-02-06T22:46:57.805Z,99.90
2023-02-06T22:49:28.125Z,99.90
2023-02-06T22:51:57.943Z,99.90
2023-02-06T22:54:25.956Z,99.90
2023-02-06T22:56:57.158Z,99.90
2023-02-06T22:59:27.851Z,99.90
2023-02-06T23:01:58.851Z,99.90
2023-02-06T23:04:34.376Z,99.90
2023-02-06T23:07:02.761Z,99.90
2023-02-06T23:09:34.302Z,99.90
2023-02-06T23:12:03.591Z,99.90
2023-02-06T23:14:33.655Z,99.90
2023-02-06T23:17:02.772Z,99.90
2023-02-06T23:19:31.438Z,99.90
2023-02-06T23:22:00.119Z,99.90
2023-02-06T23:24:27.684Z,99.90
2023-02-06T23:26:55.851Z,99.90
2023-02-06T23:29:24.797Z,99.90
2023-02-06T23:31:53.264Z,99.90
2023-02-06T23:34:23.867Z,99.90
2023-02-06T23:36:53.792Z,99.90
2023-02-06T23:39:21.885Z,99.90
2023-02-06T23:41:50.080Z,99.90
2023-02-06T23:44:34.917Z,99.90
2023-02-06T23:47:03.436Z,99.90
2023-02-06T23:49:32.856Z,99.90
2023-02-06T23:52:03.550Z,99.90
2023-02-06T23:54:31.659Z,99.90
2023-02-06T23:57:13.940Z,99.90
2023-02-06T23:59:42.003Z,99.90
